Huvudsida
METAR-TAF:

METAR-TAF

Flygplatser :

Eros Airport

Windhoek, Namibia

latitud: 22-36-44S, longitud: 017-04-50E, höjd: 1699 m

Aktuellt väderrapport

Denna rapport gjordes för 3 timmar och 17 minuter sedan, klockan 05:00 UTC
Vind 3 kt från nordost
Temperatur 8°C
Fuktighet 61%
Tryck 1031 hPa
Sikt 10 km eller mer
Inga moln under 1 500 m eller inga cumulonimbus

METAR: FYWE 250500Z 04003KT CAVOK 08/01 Q1031

Tid: 10:17 (08:17 UTC)

Väderprognos

Denna rapport gjordes för 15 timmar och 17 minuter sedan, klockan 17:00 UTC
Prognos gäller från 24 kl. 18 UTC till 25 kl. 03 UTC
Vind 4 kt från ost
Sikt 10 km eller mer
Inga moln under 1 500 m eller inga cumulonimbus

TAF: FYWE 241700Z 2418/2503 10004KT CAVOK

Aktuella väderrapporter och prognoser från 4000 flygplatser (METAR- och TAF-rapporter).

De tillgängliga stationerna syns som gula och röda prickar på kartan.

För musen över prickarna för att se namnen på stationerna.

Klicka sedan för att få väderrapporter och prognoser.

För att ändra kartan: Klicka på de gröna knapparna med ett svart kors på för att zooma in; den gröna knappen med ett streck på för att zooma ut; eller på de gröna pilarna för angränsande kartor.


METAR-TAF: